Time;durP1;ratioP1;P1;durP2;ratioP2;P2;SDS_P1;SDS_P2;PMS_P1;PMS_P2;Temp;Humidity;BMP_temperature;BMP_pressure;BME280_temperature;BME280_humidity;BME280_pressure;Samples;Min_cycle;Max_cycle;Signal;HPM_P1;HPM_P2
2020/12/29 00:00:30;;;;;;;27.73;14.20;;;;;;;;;;5041269;28;20056;-58
2020/12/29 00:02:56;;;;;;;29.05;14.32;;;;;;;;;;5055482;28;20041;-58
2020/12/29 00:05:22;;;;;;;31.55;14.50;;;;;;;;;;5049852;28;20039;-58
2020/12/29 00:07:54;;;;;;;32.70;15.02;;;;;;;;;;5052435;28;20541;-58
2020/12/29 00:10:21;;;;;;;29.88;14.10;;;;;;;;;;5052194;28;20853;-58
2020/12/29 00:12:47;;;;;;;33.67;14.70;;;;;;;;;;5043200;28;20155;-58
2020/12/29 00:15:13;;;;;;;29.95;14.80;;;;;;;;;;5053503;28;20032;-58
2020/12/29 00:17:39;;;;;;;30.10;14.75;;;;;;;;;;5051098;28;20111;-58
2020/12/29 00:20:06;;;;;;;34.95;16.17;;;;;;;;;;5052285;28;20693;-58
2020/12/29 00:22:32;;;;;;;29.88;14.18;;;;;;;;;;5057378;28;20115;-58
2020/12/29 00:24:58;;;;;;;28.13;15.27;;;;;;;;;;5049065;28;20037;-57
2020/12/29 00:27:24;;;;;;;32.50;14.95;;;;;;;;;;5053676;28;20082;-56
2020/12/29 00:29:51;;;;;;;33.92;15.35;;;;;;;;;;5043902;28;20402;-57
2020/12/29 00:32:19;;;;;;;36.08;15.75;;;;;;;;;;5031487;28;20062;-58
2020/12/29 00:34:45;;;;;;;30.83;14.93;;;;;;;;;;5047010;28;20032;-58
2020/12/29 00:37:11;;;;;;;32.78;15.65;;;;;;;;;;5044395;28;20218;-58
2020/12/29 00:39:38;;;;;;;31.30;14.93;;;;;;;;;;5045273;28;20450;-58
2020/12/29 00:42:03;;;;;;;36.33;15.98;;;;;;;;;;5046670;28;20090;-58
2020/12/29 00:44:29;;;;;;;37.83;16.15;;;;;;;;;;5043749;28;20436;-56
2020/12/29 00:46:55;;;;;;;38.53;15.68;;;;;;;;;;5054782;28;20032;-58
2020/12/29 00:49:21;;;;;;;38.42;16.90;;;;;;;;;;5045655;28;20032;-58
2020/12/29 00:51:47;;;;;;;34.13;16.27;;;;;;;;;;5046450;28;20097;-58
2020/12/29 00:54:13;;;;;;;39.10;16.23;;;;;;;;;;5052550;28;20051;-57
2020/12/29 00:56:39;;;;;;;40.50;16.45;;;;;;;;;;5047279;28;20066;-58
2020/12/29 00:59:05;;;;;;;33.33;15.77;;;;;;;;;;5047309;28;20040;-58
2020/12/29 01:01:31;;;;;;;39.08;16.75;;;;;;;;;;5041048;28;20532;-57
2020/12/29 01:03:57;;;;;;;38.78;16.27;;;;;;;;;;5047735;28;20042;-58
2020/12/29 01:06:30;;;;;;;39.25;17.33;;;;;;;;;;5047555;28;20044;-58
2020/12/29 01:08:56;;;;;;;40.25;17.40;;;;;;;;;;5046167;28;20056;-58
2020/12/29 01:11:22;;;;;;;47.42;18.55;;;;;;;;;;5040926;28;20033;-58
2020/12/29 01:13:48;;;;;;;36.92;17.23;;;;;;;;;;5027627;28;20045;-55
2020/12/29 01:16:14;;;;;;;36.70;17.08;;;;;;;;;;5041866;28;20040;-58
2020/12/29 01:18:40;;;;;;;39.05;17.58;;;;;;;;;;5023399;28;20028;-58
2020/12/29 01:21:10;;;;;;;41.40;17.13;;;;;;;;;;5048186;28;21803;-58
2020/12/29 01:23:36;;;;;;;39.85;18.00;;;;;;;;;;5046503;28;20042;-58
2020/12/29 01:26:02;;;;;;;41.67;18.27;;;;;;;;;;5046766;28;20120;-58
2020/12/29 01:28:28;;;;;;;38.03;18.38;;;;;;;;;;5047945;28;20358;-58
2020/12/29 01:30:54;;;;;;;48.78;19.42;;;;;;;;;;5046514;28;20043;-58
2020/12/29 01:33:20;;;;;;;50.92;19.83;;;;;;;;;;5046950;28;20032;-58
2020/12/29 01:35:46;;;;;;;48.33;19.42;;;;;;;;;;5039873;28;20037;-58
2020/12/29 01:38:12;;;;;;;47.63;20.23;;;;;;;;;;5046761;28;20094;-58
2020/12/29 01:40:38;;;;;;;48.88;20.48;;;;;;;;;;5048709;28;20033;-58
2020/12/29 01:43:04;;;;;;;46.08;21.02;;;;;;;;;;5045256;28;20984;-58
2020/12/29 01:45:31;;;;;;;55.03;21.08;;;;;;;;;;5050887;28;20074;-58
2020/12/29 01:47:57;;;;;;;48.83;19.60;;;;;;;;;;5045380;28;20041;-58
2020/12/29 01:50:25;;;;;;;54.70;21.10;;;;;;;;;;5052626;28;20052;-58
2020/12/29 01:52:58;;;;;;;48.40;19.77;;;;;;;;;;5049270;28;20048;-57
2020/12/29 01:55:24;;;;;;;50.85;20.55;;;;;;;;;;5037185;28;20157;-58
2020/12/29 01:57:50;;;;;;;45.03;21.13;;;;;;;;;;5045618;28;20045;-58
2020/12/29 02:00:16;;;;;;;55.83;21.92;;;;;;;;;;5040120;28;20632;-58
2020/12/29 02:02:42;;;;;;;55.60;22.17;;;;;;;;;;5028351;28;20504;-58
2020/12/29 02:05:09;;;;;;;58.08;22.08;;;;;;;;;;5046058;28;20032;-57
2020/12/29 02:07:35;;;;;;;57.28;21.92;;;;;;;;;;5042585;28;20044;-58
2020/12/29 02:10:02;;;;;;;57.38;22.63;;;;;;;;;;5053821;28;20062;-58
2020/12/29 02:12:32;;;;;;;49.97;21.75;;;;;;;;;;5023349;28;20672;-57
2020/12/29 02:14:59;;;;;;;52.78;21.73;;;;;;;;;;5051840;28;20551;-57
2020/12/29 02:17:25;;;;;;;53.47;21.55;;;;;;;;;;5051913;28;20056;-58
2020/12/29 02:19:51;;;;;;;51.97;21.67;;;;;;;;;;5050468;28;20137;-58
2020/12/29 02:22:19;;;;;;;52.95;21.15;;;;;;;;;;5050633;28;20044;-58
2020/12/29 02:24:48;;;;;;;56.30;21.77;;;;;;;;;;5044710;28;20058;-58
2020/12/29 02:27:14;;;;;;;54.08;20.67;;;;;;;;;;5044979;28;20036;-58
2020/12/29 02:29:40;;;;;;;57.13;21.15;;;;;;;;;;5044902;28;20048;-58
2020/12/29 02:32:06;;;;;;;53.55;22.42;;;;;;;;;;5047284;28;20041;-57
2020/12/29 02:34:36;;;;;;;56.08;22.23;;;;;;;;;;5040864;28;20042;-58
2020/12/29 02:37:02;;;;;;;57.92;23.20;;;;;;;;;;5043928;28;20041;-58
2020/12/29 02:39:28;;;;;;;58.92;23.83;;;;;;;;;;5033137;28;20516;-58
2020/12/29 02:41:54;;;;;;;52.03;22.38;;;;;;;;;;5050514;28;20036;-58
2020/12/29 02:44:20;;;;;;;56.67;23.65;;;;;;;;;;5049410;28;20060;-58
2020/12/29 02:46:50;;;;;;;54.30;22.77;;;;;;;;;;5049216;28;20509;-58
2020/12/29 02:49:16;;;;;;;56.10;22.20;;;;;;;;;;5029589;28;20040;-58
2020/12/29 02:51:43;;;;;;;54.72;22.75;;;;;;;;;;5054675;28;20661;-58
2020/12/29 02:54:10;;;;;;;54.22;22.17;;;;;;;;;;5048211;28;20044;-58
2020/12/29 02:56:36;;;;;;;54.08;22.63;;;;;;;;;;5042456;28;20441;-57
2020/12/29 02:59:02;;;;;;;61.90;24.42;;;;;;;;;;5042803;28;20043;-58
2020/12/29 03:01:28;;;;;;;61.42;24.70;;;;;;;;;;5050676;28;20396;-58
2020/12/29 03:03:55;;;;;;;55.63;23.15;;;;;;;;;;5024904;28;20035;-58
2020/12/29 03:06:22;;;;;;;61.55;24.48;;;;;;;;;;5050160;28;20059;-58
2020/12/29 03:08:48;;;;;;;61.03;23.48;;;;;;;;;;5051391;28;20037;-58
2020/12/29 03:11:14;;;;;;;57.40;22.02;;;;;;;;;;5044963;28;20690;-58
2020/12/29 03:13:40;;;;;;;57.40;23.45;;;;;;;;;;5027343;28;20029;-58
2020/12/29 03:16:06;;;;;;;59.47;23.45;;;;;;;;;;5044023;28;20370;-58
2020/12/29 03:18:32;;;;;;;56.70;22.05;;;;;;;;;;5041688;28;20385;-58
2020/12/29 03:20:58;;;;;;;58.95;22.95;;;;;;;;;;5039113;28;20040;-56
2020/12/29 03:23:24;;;;;;;67.80;22.75;;;;;;;;;;5048469;28;20082;-56
2020/12/29 03:25:50;;;;;;;60.90;23.13;;;;;;;;;;5045436;28;20036;-58
2020/12/29 03:28:16;;;;;;;59.33;23.23;;;;;;;;;;5046208;28;20116;-58
2020/12/29 03:30:41;;;;;;;59.88;22.95;;;;;;;;;;5034874;28;20122;-57
2020/12/29 03:33:07;;;;;;;64.35;23.20;;;;;;;;;;5050244;28;20127;-57
2020/12/29 03:35:33;;;;;;;55.95;22.45;;;;;;;;;;5043994;28;20060;-56
2020/12/29 03:37:59;;;;;;;56.00;21.83;;;;;;;;;;5046640;28;20723;-58
2020/12/29 03:40:25;;;;;;;54.10;22.38;;;;;;;;;;5036561;28;20052;-58
2020/12/29 03:42:51;;;;;;;53.95;22.40;;;;;;;;;;5051615;28;20037;-58
2020/12/29 03:45:17;;;;;;;66.57;22.40;;;;;;;;;;5042672;28;20036;-58
2020/12/29 03:47:43;;;;;;;53.08;21.92;;;;;;;;;;5052270;28;20036;-58
2020/12/29 03:50:09;;;;;;;54.30;21.33;;;;;;;;;;5051375;28;20068;-57
2020/12/29 03:52:35;;;;;;;56.10;21.75;;;;;;;;;;5036974;28;20032;-58
2020/12/29 03:55:01;;;;;;;54.05;22.42;;;;;;;;;;5037135;28;20051;-58
2020/12/29 03:57:27;;;;;;;56.05;22.10;;;;;;;;;;5056950;28;20522;-58
2020/12/29 03:59:53;;;;;;;59.63;22.83;;;;;;;;;;5055073;28;20576;-58
2020/12/29 04:02:19;;;;;;;60.97;22.55;;;;;;;;;;5057914;28;20064;-58
2020/12/29 04:04:45;;;;;;;59.17;21.92;;;;;;;;;;5050858;28;20120;-58
2020/12/29 04:07:11;;;;;;;57.42;21.60;;;;;;;;;;5053172;28;20536;-58
2020/12/29 04:09:37;;;;;;;59.00;21.20;;;;;;;;;;5056693;28;20047;-57
2020/12/29 04:12:03;;;;;;;52.55;22.08;;;;;;;;;;5029124;28;20396;-58
2020/12/29 04:14:29;;;;;;;57.60;22.27;;;;;;;;;;5018448;28;20566;-58
2020/12/29 04:16:56;;;;;;;59.92;21.95;;;;;;;;;;5042523;28;20037;-58
2020/12/29 04:19:22;;;;;;;56.05;22.67;;;;;;;;;;5053490;28;20067;-58
2020/12/29 04:21:48;;;;;;;54.80;21.70;;;;;;;;;;5054343;28;20040;-58
2020/12/29 04:24:14;;;;;;;58.13;20.15;;;;;;;;;;5048779;28;20127;-58
2020/12/29 04:26:39;;;;;;;51.17;21.23;;;;;;;;;;5050239;28;20276;-58
2020/12/29 04:29:05;;;;;;;52.40;21.27;;;;;;;;;;5034302;28;20067;-58
2020/12/29 04:31:32;;;;;;;55.72;21.65;;;;;;;;;;5046777;28;20576;-58
2020/12/29 04:33:58;;;;;;;50.08;21.30;;;;;;;;;;5044906;28;20043;-58
2020/12/29 04:36:24;;;;;;;57.80;22.27;;;;;;;;;;5045742;28;20048;-58
2020/12/29 04:38:50;;;;;;;53.88;21.58;;;;;;;;;;5048591;28;20424;-58
2020/12/29 04:41:16;;;;;;;56.72;22.08;;;;;;;;;;5045840;28;20368;-58
2020/12/29 04:43:43;;;;;;;58.88;22.13;;;;;;;;;;5024392;28;20485;-58
2020/12/29 04:46:10;;;;;;;52.75;21.65;;;;;;;;;;5046376;28;20122;-58
2020/12/29 04:48:36;;;;;;;57.97;23.38;;;;;;;;;;5058048;28;20028;-58
2020/12/29 04:51:04;;;;;;;52.92;21.02;;;;;;;;;;5051807;28;20033;-58
2020/12/29 04:53:34;;;;;;;55.08;20.83;;;;;;;;;;5050564;28;20074;-58
2020/12/29 04:56:18;;;;;;;53.90;22.67;;;;;;;;;;5046667;28;20496;-57
2020/12/29 04:58:44;;;;;;;60.22;22.05;;;;;;;;;;5046304;28;20040;-58
2020/12/29 05:01:10;;;;;;;56.65;22.48;;;;;;;;;;5043449;28;20088;-57
2020/12/29 05:03:43;;;;;;;60.00;22.10;;;;;;;;;;5039794;28;20548;-58
2020/12/29 05:06:10;;;;;;;57.85;22.85;;;;;;;;;;5046934;28;20071;-58
2020/12/29 05:08:36;;;;;;;63.40;22.48;;;;;;;;;;5047338;28;20136;-58
2020/12/29 05:11:02;;;;;;;55.05;22.13;;;;;;;;;;5043964;28;20417;-58
2020/12/29 05:13:28;;;;;;;56.88;22.42;;;;;;;;;;5026031;28;20508;-58
2020/12/29 05:15:54;;;;;;;63.72;22.73;;;;;;;;;;5042403;28;20547;-58
2020/12/29 05:18:20;;;;;;;66.50;22.95;;;;;;;;;;5046700;28;20043;-58
2020/12/29 05:20:48;;;;;;;63.75;24.40;;;;;;;;;;5038130;28;20082;-58
2020/12/29 05:23:14;;;;;;;60.88;23.05;;;;;;;;;;5048474;28;20045;-58
2020/12/29 05:25:46;;;;;;;59.08;21.98;;;;;;;;;;5044249;28;20493;-58
2020/12/29 05:28:12;;;;;;;64.28;23.30;;;;;;;;;;5042082;28;20357;-58
2020/12/29 05:30:39;;;;;;;59.88;22.85;;;;;;;;;;5047292;28;20331;-58
2020/12/29 05:33:10;;;;;;;50.17;22.05;;;;;;;;;;5044659;28;20075;-58
2020/12/29 05:35:37;;;;;;;54.45;22.00;;;;;;;;;;5042230;28;20388;-58
2020/12/29 05:38:03;;;;;;;60.03;22.65;;;;;;;;;;5026198;28;20316;-58
2020/12/29 05:40:30;;;;;;;56.50;22.25;;;;;;;;;;5040745;28;20548;-57
2020/12/29 05:42:57;;;;;;;61.05;22.83;;;;;;;;;;5045183;28;20041;-58
2020/12/29 05:45:27;;;;;;;62.20;22.35;;;;;;;;;;5037509;28;20409;-58
2020/12/29 05:47:54;;;;;;;54.75;21.55;;;;;;;;;;5038332;28;20133;-58
2020/12/29 05:50:21;;;;;;;60.30;21.13;;;;;;;;;;5043797;28;20055;-58
2020/12/29 05:52:51;;;;;;;50.08;20.52;;;;;;;;;;5028494;28;20044;-58
2020/12/29 05:55:18;;;;;;;54.45;22.48;;;;;;;;;;5040836;28;20035;-58
2020/12/29 05:57:44;;;;;;;60.25;23.13;;;;;;;;;;5036757;28;20041;-58
2020/12/29 06:00:09;;;;;;;68.43;23.33;;;;;;;;;;5033410;28;20051;-58
2020/12/29 06:02:39;;;;;;;58.10;22.35;;;;;;;;;;5035843;28;20036;-58
2020/12/29 06:05:06;;;;;;;59.42;22.38;;;;;;;;;;5041311;28;20040;-58
2020/12/29 06:07:33;;;;;;;59.85;22.75;;;;;;;;;;5028796;28;20550;-58
2020/12/29 06:10:00;;;;;;;57.70;23.25;;;;;;;;;;5022811;28;20127;-56
2020/12/29 06:12:32;;;;;;;60.17;22.80;;;;;;;;;;5051215;28;20052;-58
2020/12/29 06:14:58;;;;;;;57.08;22.35;;;;;;;;;;5047984;28;20415;-58
2020/12/29 06:17:31;;;;;;;64.18;23.52;;;;;;;;;;5040905;28;20660;-58
2020/12/29 06:20:04;;;;;;;70.80;23.13;;;;;;;;;;5048866;28;20037;-57
2020/12/29 06:22:31;;;;;;;57.72;22.50;;;;;;;;;;5056006;28;20047;-58
2020/12/29 06:24:57;;;;;;;59.75;24.08;;;;;;;;;;5042697;28;20044;-57
2020/12/29 06:27:27;;;;;;;57.25;22.67;;;;;;;;;;5025577;28;20840;-58
2020/12/29 06:29:54;;;;;;;70.32;24.45;;;;;;;;;;5041701;28;20065;-58
2020/12/29 06:32:21;;;;;;;69.82;23.30;;;;;;;;;;5035734;28;20040;-58
2020/12/29 06:34:48;;;;;;;73.28;24.40;;;;;;;;;;5042998;28;20052;-58
2020/12/29 06:37:24;;;;;;;66.20;23.77;;;;;;;;;;5050402;28;20097;-58
2020/12/29 06:39:53;;;;;;;68.20;25.42;;;;;;;;;;5044880;28;20041;-58
2020/12/29 06:42:19;;;;;;;68.80;25.98;;;;;;;;;;5046191;28;20511;-58
2020/12/29 06:44:45;;;;;;;68.40;24.70;;;;;;;;;;5044541;28;20409;-57
2020/12/29 06:47:11;;;;;;;75.38;25.48;;;;;;;;;;5049274;28;20405;-58
2020/12/29 06:49:44;;;;;;;68.75;25.88;;;;;;;;;;5046995;28;20235;-58
2020/12/29 06:52:14;;;;;;;65.88;24.88;;;;;;;;;;5024315;28;20404;-58
2020/12/29 06:54:53;;;;;;;67.65;24.17;;;;;;;;;;5035856;28;20068;-58
2020/12/29 06:57:25;;;;;;;63.88;24.90;;;;;;;;;;5019756;28;20045;-57
2020/12/29 06:59:52;;;;;;;70.97;26.77;;;;;;;;;;5018897;28;20049;-58
2020/12/29 07:02:19;;;;;;;73.75;27.77;;;;;;;;;;5022115;28;20037;-58
2020/12/29 07:04:49;;;;;;;89.40;28.05;;;;;;;;;;5023545;28;20493;-57
2020/12/29 07:07:27;;;;;;;74.55;27.65;;;;;;;;;;5044363;28;20124;-56
2020/12/29 07:09:59;;;;;;;75.90;28.13;;;;;;;;;;5029826;28;20566;-57
2020/12/29 07:12:29;;;;;;;70.07;27.95;;;;;;;;;;5027872;28;20109;-56
2020/12/29 07:14:55;;;;;;;73.68;28.80;;;;;;;;;;5025013;28;20037;-56
2020/12/29 07:17:25;;;;;;;79.32;28.33;;;;;;;;;;5028045;28;20029;-57
2020/12/29 07:19:54;;;;;;;73.10;27.73;;;;;;;;;;5023241;28;20045;-58
2020/12/29 07:22:20;;;;;;;78.85;30.42;;;;;;;;;;5027902;28;20588;-58
2020/12/29 07:24:46;;;;;;;84.55;30.67;;;;;;;;;;5026452;28;20043;-58
2020/12/29 07:27:12;;;;;;;82.78;30.50;;;;;;;;;;5027380;28;20116;-58
2020/12/29 07:29:52;;;;;;;85.82;32.03;;;;;;;;;;5017840;28;20685;-58
2020/12/29 07:32:18;;;;;;;77.85;29.77;;;;;;;;;;5027063;28;20488;-58
2020/12/29 07:34:46;;;;;;;83.22;31.15;;;;;;;;;;5016496;28;20037;-58
2020/12/29 07:37:14;;;;;;;88.68;29.95;;;;;;;;;;5025627;28;20090;-56
2020/12/29 07:39:41;;;;;;;92.82;31.42;;;;;;;;;;5032766;28;20497;-58
2020/12/29 07:42:07;;;;;;;85.07;30.02;;;;;;;;;;5025694;28;20037;-58
2020/12/29 07:44:33;;;;;;;89.45;30.52;;;;;;;;;;5019785;28;20106;-58
2020/12/29 07:46:59;;;;;;;85.88;29.88;;;;;;;;;;5003775;28;20080;-58
2020/12/29 07:49:25;;;;;;;80.47;31.13;;;;;;;;;;5020079;28;20555;-58
2020/12/29 07:51:51;;;;;;;86.32;30.88;;;;;;;;;;5019317;28;20068;-58
2020/12/29 07:54:20;;;;;;;80.88;29.92;;;;;;;;;;5014926;28;20029;-58
2020/12/29 07:56:46;;;;;;;89.13;31.92;;;;;;;;;;5014151;28;20045;-58
2020/12/29 07:59:13;;;;;;;88.32;32.92;;;;;;;;;;5019774;28;20560;-58
2020/12/29 08:01:52;;;;;;;101.55;32.75;;;;;;;;;;5023155;28;20036;-57
2020/12/29 08:04:25;;;;;;;89.30;31.67;;;;;;;;;;5014336;28;20726;-58
2020/12/29 08:06:51;;;;;;;91.47;32.60;;;;;;;;;;5018514;28;20045;-58
2020/12/29 08:09:17;;;;;;;98.97;33.28;;;;;;;;;;5024589;28;20091;-58
2020/12/29 08:11:43;;;;;;;89.28;33.80;;;;;;;;;;5028353;28;20040;-58
2020/12/29 08:14:10;;;;;;;94.10;33.25;;;;;;;;;;5015032;28;20041;-58
2020/12/29 08:16:36;;;;;;;96.40;32.88;;;;;;;;;;5026229;28;20440;-58
2020/12/29 08:19:02;;;;;;;91.15;32.63;;;;;;;;;;5016413;28;21173;-58
2020/12/29 08:21:30;;;;;;;98.53;33.00;;;;;;;;;;5034721;28;20040;-58
2020/12/29 08:23:57;;;;;;;94.22;33.17;;;;;;;;;;5021209;28;20064;-58
2020/12/29 08:26:23;;;;;;;101.25;33.50;;;;;;;;;;5028638;28;20238;-58
2020/12/29 08:28:50;;;;;;;97.80;33.90;;;;;;;;;;5024254;28;20076;-59
2020/12/29 08:31:20;;;;;;;104.22;35.47;;;;;;;;;;5030185;28;20067;-59
2020/12/29 08:33:47;;;;;;;103.65;34.15;;;;;;;;;;5027439;28;20029;-57
2020/12/29 08:36:21;;;;;;;102.65;34.80;;;;;;;;;;5028574;28;20111;-59
2020/12/29 08:39:13;;;;;;;110.80;34.97;;;;;;;;;;5024404;28;20047;-58
2020/12/29 08:41:41;;;;;;;111.60;34.72;;;;;;;;;;5024749;28;20037;-58
2020/12/29 08:44:08;;;;;;;116.53;37.40;;;;;;;;;;5022776;28;20044;-58
2020/12/29 08:46:35;;;;;;;119.00;36.95;;;;;;;;;;5032016;28;20037;-58
2020/12/29 08:49:02;;;;;;;110.95;36.63;;;;;;;;;;5023756;28;20045;-58
2020/12/29 08:51:29;;;;;;;122.07;40.53;;;;;;;;;;5034708;28;20072;-58
2020/12/29 08:54:07;;;;;;;126.70;40.17;;;;;;;;;;5024954;28;20060;-58
2020/12/29 08:56:34;;;;;;;139.65;42.28;;;;;;;;;;5024844;28;20088;-58
2020/12/29 08:59:08;;;;;;;142.40;43.72;;;;;;;;;;5027185;28;20548;-58
2020/12/29 09:01:40;;;;;;;137.75;42.20;;;;;;;;;;5025538;28;20039;-58
2020/12/29 09:04:25;;;;;;;142.25;43.38;;;;;;;;;;5007311;28;21143;-58
2020/12/29 09:07:10;;;;;;;134.65;42.47;;;;;;;;;;5021044;28;20088;-58
2020/12/29 09:09:57;;;;;;;126.53;42.30;;;;;;;;;;5042859;28;20045;-58
2020/12/29 09:12:28;;;;;;;134.20;41.50;;;;;;;;;;5020430;28;20742;-58
2020/12/29 09:14:56;;;;;;;125.65;40.90;;;;;;;;;;5027455;28;20025;-58
2020/12/29 09:17:23;;;;;;;123.47;40.40;;;;;;;;;;5025631;28;20179;-58
2020/12/29 09:20:24;;;;;;;125.28;38.38;;;;;;;;;;5005602;28;20074;-59
2020/12/29 09:22:53;;;;;;;121.78;40.88;;;;;;;;;;5000360;28;20099;-56
2020/12/29 09:25:32;;;;;;;129.20;39.25;;;;;;;;;;5015707;28;20064;-58
2020/12/29 09:28:10;;;;;;;125.63;40.10;;;;;;;;;;5020169;28;20630;-58
2020/12/29 09:30:36;;;;;;;135.70;39.28;;;;;;;;;;5022696;28;20477;-62
2020/12/29 09:33:02;;;;;;;132.50;41.78;;;;;;;;;;5018961;28;20160;-62
2020/12/29 09:35:29;;;;;;;139.18;42.75;;;;;;;;;;5018558;28;20484;-59
2020/12/29 09:37:56;;;;;;;124.72;40.45;;;;;;;;;;5014850;28;20048;-58
2020/12/29 09:40:22;;;;;;;139.15;42.17;;;;;;;;;;5019920;28;20037;-58
2020/12/29 09:42:48;;;;;;;130.02;40.90;;;;;;;;;;5017849;28;20045;-58
2020/12/29 09:45:25;;;;;;;137.50;41.13;;;;;;;;;;5016514;28;20091;-58
2020/12/29 09:47:51;;;;;;;135.27;41.65;;;;;;;;;;5017197;28;20040;-59
2020/12/29 09:50:18;;;;;;;129.07;41.58;;;;;;;;;;5019952;28;20162;-58
2020/12/29 09:52:44;;;;;;;122.93;40.97;;;;;;;;;;5016820;28;20128;-56
2020/12/29 09:55:10;;;;;;;135.95;43.25;;;;;;;;;;5013941;28;20208;-58
2020/12/29 09:57:36;;;;;;;130.55;43.20;;;;;;;;;;5019548;28;20135;-59
2020/12/29 10:00:02;;;;;;;120.68;40.75;;;;;;;;;;4993886;28;20036;-58
2020/12/29 10:02:28;;;;;;;128.10;41.13;;;;;;;;;;5014096;28;20045;-58
2020/12/29 10:04:54;;;;;;;136.88;43.75;;;;;;;;;;5011135;28;20045;-58
2020/12/29 10:07:20;;;;;;;127.40;41.78;;;;;;;;;;5015727;28;20037;-59
2020/12/29 10:09:46;;;;;;;129.57;42.55;;;;;;;;;;5008262;28;20044;-57
2020/12/29 10:12:12;;;;;;;123.15;42.75;;;;;;;;;;5015557;28;20099;-58
2020/12/29 10:14:38;;;;;;;124.30;42.17;;;;;;;;;;5011746;28;20798;-59
2020/12/29 10:17:04;;;;;;;118.85;41.13;;;;;;;;;;5025011;28;20186;-59
2020/12/29 10:19:30;;;;;;;126.57;41.33;;;;;;;;;;5017664;28;20123;-58
2020/12/29 10:21:56;;;;;;;127.18;41.38;;;;;;;;;;5014262;28;20049;-57
2020/12/29 10:24:23;;;;;;;127.57;42.40;;;;;;;;;;5012783;28;20187;-58
2020/12/29 10:26:49;;;;;;;126.78;41.95;;;;;;;;;;5016419;28;20773;-58
2020/12/29 10:29:16;;;;;;;119.25;40.70;;;;;;;;;;5017636;28;20041;-58
2020/12/29 10:31:42;;;;;;;121.20;42.20;;;;;;;;;;5013138;28;20041;-59
2020/12/29 10:34:10;;;;;;;131.82;41.70;;;;;;;;;;5014335;28;20029;-59
2020/12/29 10:36:36;;;;;;;132.57;42.38;;;;;;;;;;5017780;28;20048;-60
2020/12/29 10:39:03;;;;;;;115.53;38.88;;;;;;;;;;4991548;28;20033;-57
2020/12/29 10:41:30;;;;;;;92.20;33.13;;;;;;;;;;5020553;28;20036;-57
2020/12/29 10:43:56;;;;;;;81.20;29.45;;;;;;;;;;5014139;28;20041;-57
2020/12/29 10:46:22;;;;;;;71.35;28.05;;;;;;;;;;5018153;28;20082;-58
2020/12/29 10:48:48;;;;;;;75.13;27.63;;;;;;;;;;5031803;28;20099;-57
2020/12/29 10:51:21;;;;;;;82.93;27.88;;;;;;;;;;5016931;28;20041;-58
2020/12/29 10:53:47;;;;;;;73.85;27.73;;;;;;;;;;5030485;28;20132;-58
2020/12/29 10:56:13;;;;;;;73.97;28.00;;;;;;;;;;5017658;28;20037;-57
2020/12/29 10:58:41;;;;;;;91.43;28.27;;;;;;;;;;4996988;28;20452;-57
2020/12/29 11:01:10;;;;;;;86.68;28.95;;;;;;;;;;5015151;28;20033;-57
2020/12/29 11:03:36;;;;;;;84.28;30.10;;;;;;;;;;5015109;28;20029;-58
2020/12/29 11:06:02;;;;;;;87.18;30.35;;;;;;;;;;5018382;28;20482;-58
2020/12/29 11:08:29;;;;;;;96.63;31.02;;;;;;;;;;5017464;28;20258;-58
2020/12/29 11:10:55;;;;;;;96.97;30.60;;;;;;;;;;5014470;28;20047;-58
2020/12/29 11:13:21;;;;;;;93.55;30.08;;;;;;;;;;5014668;28;20140;-58
2020/12/29 11:15:48;;;;;;;103.93;31.08;;;;;;;;;;4996089;28;20732;-58
2020/12/29 11:18:14;;;;;;;91.20;30.70;;;;;;;;;;5013768;28;20509;-58
2020/12/29 11:20:40;;;;;;;93.80;30.30;;;;;;;;;;5012413;28;20625;-58
2020/12/29 11:23:06;;;;;;;93.20;31.75;;;;;;;;;;5016551;28;20044;-58
2020/12/29 11:25:32;;;;;;;88.38;31.27;;;;;;;;;;5014486;28;20065;-58
2020/12/29 11:27:58;;;;;;;93.50;30.65;;;;;;;;;;5014721;28;21035;-58
2020/12/29 11:30:24;;;;;;;97.78;31.75;;;;;;;;;;5020268;28;20733;-62
2020/12/29 11:32:50;;;;;;;92.47;29.45;;;;;;;;;;5024791;28;20473;-62
2020/12/29 11:35:16;;;;;;;84.00;28.52;;;;;;;;;;5015364;28;20041;-62
2020/12/29 11:37:42;;;;;;;98.45;28.73;;;;;;;;;;5021993;28;20371;-61
2020/12/29 11:40:09;;;;;;;84.47;26.75;;;;;;;;;;5022858;28;20882;-58
2020/12/29 11:42:35;;;;;;;94.30;27.35;;;;;;;;;;5015591;28;20378;-58
2020/12/29 11:45:01;;;;;;;82.35;26.10;;;;;;;;;;5021370;28;20122;-58
2020/12/29 11:47:27;;;;;;;84.05;27.42;;;;;;;;;;5024119;28;20052;-58
2020/12/29 11:49:53;;;;;;;76.82;26.35;;;;;;;;;;5018505;28;20037;-58
2020/12/29 11:52:19;;;;;;;79.65;25.70;;;;;;;;;;4997911;28;20455;-58
2020/12/29 11:54:45;;;;;;;78.75;25.13;;;;;;;;;;5015569;28;20039;-58
2020/12/29 11:57:11;;;;;;;73.15;23.08;;;;;;;;;;5014708;28;20037;-58
2020/12/29 11:59:40;;;;;;;69.25;23.13;;;;;;;;;;5014889;28;20397;-58
2020/12/29 12:02:06;;;;;;;63.88;22.88;;;;;;;;;;5016966;28;20036;-58
2020/12/29 12:04:32;;;;;;;66.80;22.05;;;;;;;;;;5017108;28;20055;-58
2020/12/29 12:06:58;;;;;;;67.65;21.63;;;;;;;;;;5017498;28;20044;-58
2020/12/29 12:09:24;;;;;;;67.53;21.63;;;;;;;;;;5018332;28;23462;-58
2020/12/29 12:11:50;;;;;;;58.75;20.27;;;;;;;;;;5020547;28;20480;-58
2020/12/29 12:14:17;;;;;;;53.63;20.02;;;;;;;;;;5018720;28;20075;-58
2020/12/29 12:16:43;;;;;;;49.03;19.33;;;;;;;;;;5030406;28;20036;-57
2020/12/29 12:19:09;;;;;;;55.30;18.23;;;;;;;;;;5020180;28;20071;-57
2020/12/29 12:21:35;;;;;;;46.47;17.13;;;;;;;;;;5026096;28;20045;-58
2020/12/29 12:24:01;;;;;;;48.60;18.13;;;;;;;;;;5022624;28;20405;-58
2020/12/29 12:26:28;;;;;;;46.35;16.58;;;;;;;;;;5030639;28;20047;-58
2020/12/29 12:28:54;;;;;;;55.30;17.48;;;;;;;;;;5028671;28;20061;-58
2020/12/29 12:31:21;;;;;;;42.40;16.05;;;;;;;;;;5011118;28;20040;-58
2020/12/29 12:33:47;;;;;;;25.77;12.13;;;;;;;;;;5026922;28;20048;-57
2020/12/29 12:36:13;;;;;;;23.83;11.45;;;;;;;;;;5027407;28;20041;-58
2020/12/29 12:38:43;;;;;;;19.50;9.70;;;;;;;;;;5027702;28;20481;-58
2020/12/29 12:41:09;;;;;;;20.75;10.07;;;;;;;;;;5037927;28;20083;-58
2020/12/29 12:43:35;;;;;;;20.35;10.23;;;;;;;;;;5024010;28;20045;-58
2020/12/29 12:46:01;;;;;;;20.13;10.07;;;;;;;;;;5018230;28;20400;-58
2020/12/29 12:48:27;;;;;;;19.05;9.65;;;;;;;;;;5015755;28;20061;-58
2020/12/29 12:50:54;;;;;;;20.02;9.27;;;;;;;;;;5026833;28;20927;-58
2020/12/29 12:53:20;;;;;;;20.52;10.60;;;;;;;;;;5023941;28;20040;-58
2020/12/29 12:55:46;;;;;;;20.35;10.15;;;;;;;;;;5021059;28;21960;-58
2020/12/29 12:58:12;;;;;;;18.55;8.80;;;;;;;;;;5020227;28;20044;-58
2020/12/29 13:00:38;;;;;;;20.40;9.43;;;;;;;;;;5021931;28;20053;-58
2020/12/29 13:03:04;;;;;;;20.27;8.95;;;;;;;;;;5020935;28;20767;-58
2020/12/29 13:05:30;;;;;;;19.48;9.77;;;;;;;;;;5021771;28;20055;-58
2020/12/29 13:07:56;;;;;;;24.15;11.30;;;;;;;;;;5024632;28;20095;-59
2020/12/29 13:10:22;;;;;;;23.48;10.18;;;;;;;;;;5024676;28;20119;-59
2020/12/29 13:12:49;;;;;;;33.88;11.90;;;;;;;;;;5025205;28;20045;-58
2020/12/29 13:15:15;;;;;;;35.13;12.90;;;;;;;;;;5023324;28;20045;-59
2020/12/29 13:17:41;;;;;;;32.83;13.50;;;;;;;;;;5012714;28;20044;-59
2020/12/29 13:20:09;;;;;;;37.50;14.85;;;;;;;;;;5023347;28;20452;-59
2020/12/29 13:22:36;;;;;;;34.80;14.63;;;;;;;;;;5021800;28;20066;-59
2020/12/29 13:25:03;;;;;;;36.92;15.25;;;;;;;;;;5033969;28;20037;-59
2020/12/29 13:27:29;;;;;;;30.58;12.35;;;;;;;;;;5022609;28;20052;-59
2020/12/29 13:29:55;;;;;;;35.72;13.10;;;;;;;;;;5026508;28;20049;-59
2020/12/29 13:32:21;;;;;;;30.05;14.13;;;;;;;;;;5018748;28;20793;-59
2020/12/29 13:34:47;;;;;;;45.92;16.27;;;;;;;;;;5012855;28;20461;-59
2020/12/29 13:37:13;;;;;;;43.17;16.30;;;;;;;;;;5016143;28;20350;-59
2020/12/29 13:39:39;;;;;;;53.28;17.60;;;;;;;;;;5022698;28;20485;-58
2020/12/29 13:42:06;;;;;;;47.13;16.65;;;;;;;;;;5020042;28;20060;-59
2020/12/29 13:44:32;;;;;;;47.85;18.42;;;;;;;;;;5031782;28;20052;-59
2020/12/29 13:46:58;;;;;;;52.97;18.58;;;;;;;;;;5015874;28;20037;-59
2020/12/29 13:49:24;;;;;;;55.85;20.20;;;;;;;;;;5016672;28;20463;-59
2020/12/29 13:51:50;;;;;;;64.00;21.27;;;;;;;;;;5018815;28;20029;-59
2020/12/29 13:54:16;;;;;;;57.33;21.05;;;;;;;;;;5019633;28;20039;-59
2020/12/29 13:56:42;;;;;;;56.42;21.35;;;;;;;;;;5018443;28;20135;-59
2020/12/29 13:59:11;;;;;;;62.47;21.80;;;;;;;;;;5018223;28;20666;-59
2020/12/29 14:01:37;;;;;;;64.38;21.70;;;;;;;;;;5022232;28;20351;-59
2020/12/29 14:04:03;;;;;;;61.05;22.17;;;;;;;;;;5026088;28;20037;-59
2020/12/29 14:06:29;;;;;;;61.95;22.55;;;;;;;;;;5022765;28;20049;-59
2020/12/29 14:08:55;;;;;;;61.95;23.35;;;;;;;;;;5018714;28;20036;-59
2020/12/29 14:11:22;;;;;;;68.22;24.42;;;;;;;;;;5019419;28;20037;-59
2020/12/29 14:13:48;;;;;;;77.38;24.15;;;;;;;;;;5018453;28;20115;-59
2020/12/29 14:16:14;;;;;;;61.72;23.20;;;;;;;;;;5016452;28;20568;-59